Terminal Aerodrome Forecast
Issued by NWS

Home | Current Version | Previous Version | Text Only | Print | Product List | Glossary On
Versions: 1 2 3 4 5 6 7 8 9 10 11 12 13 14 15 16 17 18 19 20 21 22 23 24 25
000
FTUS46 KSEW 201951 AAA
TAFHQM
TAF AMD
KHQM 201951Z 2020/2118 13010KT P6SM VCSH SCT015 OVC030
      WS020/22035KT
     FM210000 15016G28KT P6SM -SHRA SCT010 BKN020 OVC030
      WS020/21040KT
     FM210700 14022G34KT 5SM -RA SCT012 BKN025 OVC040 WS020/20050KT
     FM211300 14030G45KT 1 1/2SM RA BR SCT005 BKN009 OVC015
      WS020/19055KT
     FM211700 19018G30KT 5SM -SHRA BR SCT012 BKN025=

USA.gov is the U.S. government's official web portal to all federal, state and local government web resources and services.